Aviation Digital Data Service (ADDS)

Output produced by METARs form (0253 UTC 05 June 2020)
found at http://www.aviationweather.gov/metar/data/
 
Forecast for: FALE (DURBAN SHAKA , ZA)
Text: TAF FALE 042200Z 0500/0606 VRB03KT 9999 BKN020 TX24/0512Z TN12/0504Z
Forecast period: 0000 to 0900 UTC 05 June 2020
Forecast type: FROM: standard forecast or significant change
Winds: variable direction winds at 3 MPH (3 knots; 1.5 m/s)
Visibility: 6 or more miles 10+ km)
Ceiling: 2000 feet AGL
Clouds: broken clouds at 2000 feet AGL
Weather: no significant weather forecast for this period
Text: BECMG 0509/0511 04015KT
Forecast period: 0900 to 1800 UTC 05 June 2020
Forecast type: BECOMING: Conditions expected to become as follows by 1100 UTC 05 June 2020
Winds: from the NE (40 degrees) at 17 MPH (15 knots; 7.7 m/s)
Visibility: 6 or more miles 10+ km)
Ceiling: 2000 feet AGL
Clouds: broken clouds at 2000 feet AGL
Weather: no significant weather forecast for this period
Text: BECMG 0518/0520 33005KT
Forecast period: 1800 UTC 05 June 2020 to 0600 UTC 06 June 2020
Forecast type: BECOMING: Conditions expected to become as follows by 2000 UTC 05 June 2020
Winds: from the NNW (330 degrees) at 6 MPH (5 knots; 2.6 m/s)
Visibility: 6 or more miles 10+ km)
Ceiling: 2000 feet AGL
Clouds: broken clouds at 2000 feet AGL
Weather: no significant weather forecast for this period